createdAt,value
2017-11-17T00:04:03.377Z,9.43
2017-11-17T00:06:30.993Z,9.32
2017-11-17T00:08:58.551Z,9.55
2017-11-17T00:11:26.068Z,9.53
2017-11-17T00:13:53.742Z,9.46
2017-11-17T00:16:21.275Z,9.34
2017-11-17T00:18:48.805Z,9.36
2017-11-17T00:21:16.386Z,9.30
2017-11-17T00:23:43.930Z,9.26
2017-11-17T00:26:11.450Z,9.27
2017-11-17T00:28:39.076Z,9.24
2017-11-17T00:31:06.678Z,9.14
2017-11-17T00:33:34.210Z,9.45
2017-11-17T00:36:01.738Z,9.34
2017-11-17T00:38:29.353Z,9.32
2017-11-17T00:40:56.912Z,9.29
2017-11-17T00:43:24.937Z,9.28
2017-11-17T00:45:52.500Z,9.44
2017-11-17T00:48:20.026Z,9.31
2017-11-17T00:50:47.531Z,9.14
2017-11-17T00:53:15.155Z,9.20
2017-11-17T00:55:42.655Z,9.17
2017-11-17T00:58:10.749Z,9.15
2017-11-17T01:00:38.331Z,9.17
2017-11-17T01:03:08.203Z,9.26
2017-11-17T01:05:35.928Z,9.20
2017-11-17T01:08:03.796Z,9.36
2017-11-17T01:10:31.299Z,9.24
2017-11-17T01:12:59.780Z,9.37
2017-11-17T01:15:30.330Z,9.08
2017-11-17T01:17:58.023Z,9.30
2017-11-17T01:20:25.538Z,9.09
2017-11-17T01:22:53.104Z,9.35
2017-11-17T01:25:20.672Z,9.38
2017-11-17T01:27:48.186Z,9.32
2017-11-17T01:30:15.747Z,9.42
2017-11-17T01:32:43.308Z,9.34
2017-11-17T01:35:10.835Z,9.25
2017-11-17T01:37:38.415Z,9.17
2017-11-17T01:40:05.948Z,9.22
2017-11-17T01:42:33.462Z,9.22
2017-11-17T01:45:01.139Z,9.24
2017-11-17T01:47:28.668Z,9.18
2017-11-17T01:49:56.259Z,9.22
2017-11-17T01:52:23.918Z,9.36
2017-11-17T01:54:51.480Z,9.35
2017-11-17T01:57:19.060Z,9.22
2017-11-17T01:59:46.640Z,9.10
2017-11-17T02:02:20.030Z,9.19
2017-11-17T02:04:47.558Z,9.30
2017-11-17T02:07:15.066Z,9.08
2017-11-17T02:09:42.643Z,9.16
2017-11-17T02:12:10.291Z,9.27
2017-11-17T02:14:38.070Z,9.29
2017-11-17T02:17:05.656Z,9.21
2017-11-17T02:19:33.261Z,9.21
2017-11-17T02:22:00.883Z,9.08
2017-11-17T02:24:28.626Z,9.00
2017-11-17T02:26:56.181Z,9.31
2017-11-17T02:29:23.731Z,9.38
2017-11-17T02:31:51.337Z,9.22
2017-11-17T02:34:18.850Z,9.24
2017-11-17T02:36:46.424Z,9.27
2017-11-17T02:39:14.134Z,9.33
2017-11-17T02:41:41.666Z,9.28
2017-11-17T02:44:09.224Z,9.07
2017-11-17T02:46:36.849Z,9.25
2017-11-17T02:49:04.384Z,9.23
2017-11-17T02:51:31.941Z,9.29
2017-11-17T02:53:59.552Z,9.10
2017-11-17T02:56:27.155Z,9.04
2017-11-17T02:58:54.741Z,8.90
2017-11-17T03:01:22.340Z,9.07
2017-11-17T03:03:49.874Z,9.19
2017-11-17T03:06:17.397Z,9.18
2017-11-17T03:08:45.004Z,9.19
2017-11-17T03:11:12.531Z,9.03
2017-11-17T03:13:40.873Z,9.04
2017-11-17T03:16:08.584Z,9.14
2017-11-17T03:18:36.150Z,9.18
2017-11-17T03:21:03.765Z,9.38
2017-11-17T03:23:31.402Z,9.13
2017-11-17T03:25:59.198Z,9.12
2017-11-17T03:28:26.791Z,9.04
2017-11-17T03:30:54.348Z,9.12
2017-11-17T03:33:21.904Z,8.95
2017-11-17T03:35:49.486Z,8.90
2017-11-17T03:38:17.057Z,8.91
2017-11-17T03:40:44.665Z,8.99
2017-11-17T03:43:12.216Z,8.89
2017-11-17T03:45:39.806Z,8.94
2017-11-17T03:48:07.411Z,8.85
2017-11-17T03:50:34.919Z,8.96
2017-11-17T03:53:02.475Z,8.86
2017-11-17T03:55:29.997Z,8.90
2017-11-17T03:57:57.569Z,8.77
2017-11-17T04:00:25.192Z,8.89
2017-11-17T04:02:52.770Z,8.80
2017-11-17T04:05:20.280Z,8.90
2017-11-17T04:07:47.898Z,8.87
2017-11-17T04:10:15.457Z,8.72
2017-11-17T04:12:43.022Z,8.81
2017-11-17T04:15:10.700Z,8.90
2017-11-17T04:17:38.272Z,8.94
2017-11-17T04:20:05.867Z,9.00
2017-11-17T04:22:33.483Z,8.96
2017-11-17T04:25:01.080Z,8.99
2017-11-17T04:27:28.669Z,9.02
2017-11-17T04:29:56.261Z,8.91
2017-11-17T04:32:23.872Z,8.92
2017-11-17T04:34:51.393Z,9.13
2017-11-17T04:37:18.899Z,8.76
2017-11-17T04:39:46.559Z,8.88
2017-11-17T04:42:14.080Z,8.82
2017-11-17T04:44:41.629Z,9.05
2017-11-17T04:47:09.275Z,9.04
2017-11-17T04:49:36.863Z,9.04
2017-11-17T04:52:04.437Z,8.89
2017-11-17T04:54:32.046Z,8.86
2017-11-17T04:56:59.589Z,8.89
2017-11-17T04:59:27.099Z,8.82
2017-11-17T05:01:54.658Z,8.80
2017-11-17T05:04:22.274Z,8.83
2017-11-17T05:06:49.882Z,8.85
2017-11-17T05:09:17.498Z,8.84
2017-11-17T05:11:45.256Z,8.87
2017-11-17T05:14:12.803Z,8.74
2017-11-17T05:16:46.566Z,8.93
2017-11-17T05:19:14.136Z,9.32
2017-11-17T05:21:41.654Z,9.93
2017-11-17T05:24:09.239Z,10.11
2017-11-17T05:26:36.757Z,10.16
2017-11-17T05:29:04.275Z,9.44
2017-11-17T05:31:31.881Z,9.23
2017-11-17T05:33:59.422Z,9.12
2017-11-17T05:36:26.984Z,9.39
2017-11-17T05:38:54.530Z,9.21
2017-11-17T05:41:22.092Z,9.13
2017-11-17T05:43:49.711Z,9.20
2017-11-17T05:46:17.374Z,9.14
2017-11-17T05:48:45.131Z,9.12
2017-11-17T05:51:12.687Z,8.95
2017-11-17T05:53:40.255Z,8.95
2017-11-17T05:56:07.812Z,8.90
2017-11-17T05:58:35.604Z,8.80
2017-11-17T06:01:03.206Z,8.94
2017-11-17T06:03:30.947Z,9.05
2017-11-17T06:05:59.392Z,9.12
2017-11-17T06:08:26.993Z,9.14
2017-11-17T06:10:54.524Z,8.96
2017-11-17T06:13:22.048Z,9.21
2017-11-17T06:15:49.912Z,9.06
2017-11-17T06:18:17.555Z,9.31
2017-11-17T06:20:45.076Z,9.05
2017-11-17T06:23:12.660Z,9.23
2017-11-17T06:25:40.411Z,9.26
2017-11-17T06:28:07.973Z,9.19
2017-11-17T06:30:35.633Z,9.44
2017-11-17T06:33:03.394Z,9.13
2017-11-17T06:35:31.010Z,9.30
2017-11-17T06:37:58.608Z,9.41
2017-11-17T06:40:26.453Z,9.23
2017-11-17T06:42:53.995Z,9.26
2017-11-17T06:45:21.582Z,9.03
2017-11-17T06:47:49.103Z,9.24
2017-11-17T06:50:16.675Z,9.40
2017-11-17T06:52:44.263Z,9.35
2017-11-17T06:55:11.854Z,9.39
2017-11-17T06:57:39.589Z,9.51
2017-11-17T07:00:07.312Z,9.16
2017-11-17T07:02:34.841Z,9.61
2017-11-17T07:05:02.448Z,9.39
2017-11-17T07:07:30.032Z,9.52
2017-11-17T07:09:57.770Z,9.54
2017-11-17T07:12:25.292Z,9.64
2017-11-17T07:14:52.919Z,9.44
2017-11-17T07:17:20.431Z,9.54
2017-11-17T07:19:48.207Z,9.57
2017-11-17T07:22:15.784Z,9.72
2017-11-17T07:24:43.381Z,9.83
2017-11-17T07:27:11.221Z,9.70
2017-11-17T07:29:38.870Z,9.72
2017-11-17T07:32:06.515Z,9.80
2017-11-17T07:34:34.082Z,9.87
2017-11-17T07:37:01.837Z,9.96
2017-11-17T07:39:29.396Z,9.72
2017-11-17T07:41:56.985Z,9.80
2017-11-17T07:44:24.543Z,9.85
2017-11-17T07:46:52.116Z,9.93
2017-11-17T07:49:19.644Z,9.89
2017-11-17T07:51:47.390Z,9.79
2017-11-17T07:54:14.981Z,9.79
2017-11-17T07:56:42.527Z,9.76
2017-11-17T07:59:10.054Z,9.70
2017-11-17T08:01:37.673Z,9.84
2017-11-17T08:04:05.274Z,9.96
2017-11-17T08:06:32.855Z,9.81
2017-11-17T08:09:00.448Z,9.74
2017-11-17T08:11:27.981Z,9.81
2017-11-17T08:13:55.715Z,9.78
2017-11-17T08:16:23.287Z,9.86
2017-11-17T08:18:50.796Z,9.87
2017-11-17T08:21:18.353Z,9.95
2017-11-17T08:23:45.931Z,9.86
2017-11-17T08:26:13.438Z,9.67
2017-11-17T08:28:40.969Z,9.95
2017-11-17T08:31:08.595Z,9.74
2017-11-17T08:33:36.347Z,9.96
2017-11-17T08:36:03.912Z,9.89
2017-11-17T08:38:31.482Z,9.80
2017-11-17T08:40:59.039Z,9.96
2017-11-17T08:43:26.708Z,10.21
2017-11-17T08:45:54.390Z,10.03
2017-11-17T08:48:21.926Z,10.02
2017-11-17T08:50:49.459Z,10.00
2017-11-17T08:53:17.082Z,10.25
2017-11-17T08:55:44.694Z,10.34
2017-11-17T08:58:12.256Z,10.23
2017-11-17T09:00:39.831Z,10.22
2017-11-17T09:03:07.381Z,10.28
2017-11-17T09:05:34.900Z,10.28
2017-11-17T09:08:03.188Z,10.39
2017-11-17T09:10:30.719Z,10.53
2017-11-17T09:12:58.283Z,10.62
2017-11-17T09:15:25.889Z,10.28
2017-11-17T09:17:53.496Z,10.28
2017-11-17T09:20:21.008Z,10.34
2017-11-17T09:22:48.623Z,10.32
2017-11-17T09:25:16.170Z,10.51
2017-11-17T09:27:43.948Z,10.42
2017-11-17T09:30:11.663Z,10.37
2017-11-17T09:32:39.231Z,10.18
2017-11-17T09:35:06.752Z,10.33
2017-11-17T09:37:34.355Z,10.54
2017-11-17T09:40:01.910Z,10.60
2017-11-17T09:42:29.492Z,10.67
2017-11-17T09:44:57.169Z,10.76
2017-11-17T09:47:24.715Z,10.33
2017-11-17T09:49:52.296Z,10.51
2017-11-17T09:52:19.910Z,10.35
2017-11-17T09:54:47.529Z,10.64
2017-11-17T09:57:15.305Z,10.25
2017-11-17T09:59:42.923Z,10.48
2017-11-17T10:02:10.531Z,10.54
2017-11-17T10:04:38.105Z,10.58
2017-11-17T10:07:05.672Z,10.44
2017-11-17T10:09:33.387Z,10.47
2017-11-17T10:12:00.992Z,10.42
2017-11-17T10:14:28.552Z,10.73
2017-11-17T10:16:56.209Z,10.65
2017-11-17T10:19:23.744Z,10.70
2017-11-17T10:21:51.301Z,10.68
2017-11-17T10:24:19.812Z,10.72
2017-11-17T10:26:47.338Z,10.68
2017-11-17T10:29:14.921Z,10.65
2017-11-17T10:31:42.520Z,10.56
2017-11-17T10:34:10.054Z,10.83
2017-11-17T10:36:37.598Z,10.67
2017-11-17T10:39:05.228Z,10.78
2017-11-17T10:41:32.794Z,10.86
2017-11-17T10:44:00.342Z,10.62
2017-11-17T10:46:27.950Z,10.59
2017-11-17T10:48:55.776Z,10.63
2017-11-17T10:51:23.320Z,10.76
2017-11-17T10:53:51.422Z,10.69
2017-11-17T10:56:34.356Z,10.68
2017-11-17T10:59:04.705Z,10.73
2017-11-17T11:01:32.370Z,10.71
2017-11-17T11:03:59.967Z,10.42
2017-11-17T11:06:27.731Z,10.48
2017-11-17T11:08:55.334Z,10.72
2017-11-17T11:11:28.467Z,10.74
2017-11-17T11:13:56.085Z,10.85
2017-11-17T11:16:23.637Z,10.94
2017-11-17T11:18:51.393Z,10.96
2017-11-17T11:21:19.016Z,10.81
2017-11-17T11:23:46.580Z,10.77
2017-11-17T11:26:14.155Z,10.88
2017-11-17T11:28:41.756Z,11.12
2017-11-17T11:31:09.403Z,11.05
2017-11-17T11:33:37.044Z,11.04
2017-11-17T11:36:04.583Z,10.92
2017-11-17T11:38:32.187Z,10.82
2017-11-17T11:40:59.760Z,10.87
2017-11-17T11:43:27.278Z,10.92
2017-11-17T11:45:54.854Z,10.77
2017-11-17T11:48:22.388Z,10.85
2017-11-17T11:50:49.923Z,10.95
2017-11-17T11:53:17.495Z,10.90
2017-11-17T11:55:45.044Z,10.93
2017-11-17T11:58:12.563Z,11.09
2017-11-17T12:00:40.155Z,10.77
2017-11-17T12:03:07.748Z,10.74
2017-11-17T12:05:35.351Z,10.86
2017-11-17T12:08:02.959Z,10.66
2017-11-17T12:10:30.482Z,10.76
2017-11-17T12:12:58.030Z,10.76
2017-11-17T12:15:25.614Z,10.46
2017-11-17T12:17:53.122Z,10.63
2017-11-17T12:20:20.872Z,10.57
2017-11-17T12:22:48.457Z,10.69
2017-11-17T12:25:15.966Z,10.75
2017-11-17T12:27:43.506Z,10.80
2017-11-17T12:30:11.143Z,10.62
2017-11-17T12:32:38.703Z,10.56
2017-11-17T12:35:06.317Z,10.79
2017-11-17T12:37:34.008Z,10.87
2017-11-17T12:40:01.550Z,10.81
2017-11-17T12:42:29.307Z,10.95
2017-11-17T12:44:56.955Z,11.07
2017-11-17T12:47:24.725Z,10.95
2017-11-17T12:49:52.314Z,10.99
2017-11-17T12:52:23.131Z,11.12
2017-11-17T12:54:50.914Z,11.05
2017-11-17T12:57:18.592Z,11.14
2017-11-17T12:59:46.324Z,11.09
2017-11-17T13:02:13.896Z,11.20
2017-11-17T13:04:41.660Z,11.21
2017-11-17T13:07:09.461Z,11.17
2017-11-17T13:09:37.061Z,11.24
2017-11-17T13:12:04.683Z,11.26
2017-11-17T13:14:32.707Z,11.36
2017-11-17T13:17:00.336Z,11.42
2017-11-17T13:19:27.969Z,11.46
2017-11-17T13:21:55.484Z,11.40
2017-11-17T13:24:25.671Z,11.44
2017-11-17T13:26:53.396Z,11.35
2017-11-17T13:29:21.022Z,11.49
2017-11-17T13:31:48.683Z,11.30
2017-11-17T13:34:16.794Z,11.37
2017-11-17T13:36:44.346Z,11.40
2017-11-17T13:39:11.954Z,11.33
2017-11-17T13:41:39.479Z,11.29
2017-11-17T13:44:07.280Z,11.28
2017-11-17T13:46:35.701Z,11.26
2017-11-17T13:49:03.528Z,11.39
2017-11-17T13:51:31.349Z,11.45
2017-11-17T13:53:58.928Z,11.43
2017-11-17T13:56:26.556Z,11.30
2017-11-17T13:58:54.461Z,11.45
2017-11-17T14:01:22.094Z,11.52
2017-11-17T14:03:50.576Z,11.41
2017-11-17T14:06:18.175Z,11.32
2017-11-17T14:08:45.759Z,11.42
2017-11-17T14:11:14.352Z,11.39
2017-11-17T14:13:43.039Z,11.35
2017-11-17T14:16:10.638Z,11.46
2017-11-17T14:18:38.249Z,11.45
2017-11-17T14:21:05.883Z,11.38
2017-11-17T14:23:33.667Z,11.35
2017-11-17T14:26:01.343Z,11.43
2017-11-17T14:28:29.047Z,11.43
2017-11-17T14:30:56.634Z,11.41
2017-11-17T14:33:24.436Z,11.50
2017-11-17T14:35:52.056Z,11.29
2017-11-17T14:38:19.676Z,11.47
2017-11-17T14:40:47.504Z,11.44
2017-11-17T14:43:15.031Z,11.30
2017-11-17T14:45:42.672Z,11.27
2017-11-17T14:48:10.220Z,11.37
2017-11-17T14:50:38.019Z,11.25
2017-11-17T14:53:05.649Z,11.31
2017-11-17T14:55:33.429Z,11.22
2017-11-17T14:58:01.022Z,11.46
2017-11-17T15:00:28.892Z,11.06
2017-11-17T15:02:56.545Z,11.18
2017-11-17T15:05:24.297Z,11.23
2017-11-17T15:07:51.967Z,11.34
2017-11-17T15:10:19.663Z,11.34
2017-11-17T15:12:47.267Z,11.33
2017-11-17T15:15:14.993Z,11.13
2017-11-17T15:17:42.868Z,11.18
2017-11-17T15:20:10.480Z,11.27
2017-11-17T15:22:38.239Z,10.97
2017-11-17T15:25:06.074Z,11.08
2017-11-17T15:27:33.853Z,10.99
2017-11-17T15:30:01.478Z,11.09
2017-11-17T15:32:29.906Z,11.16
2017-11-17T15:34:57.432Z,11.03
2017-11-17T15:37:25.583Z,11.14
2017-11-17T15:39:53.210Z,11.13
2017-11-17T15:42:21.852Z,11.33
2017-11-17T15:44:49.438Z,11.06
2017-11-17T15:47:17.086Z,11.26
2017-11-17T15:49:44.922Z,11.17
2017-11-17T15:52:12.489Z,11.03
2017-11-17T15:54:40.161Z,11.23
2017-11-17T15:57:07.799Z,11.20
2017-11-17T15:59:35.569Z,11.03
2017-11-17T16:02:03.239Z,10.95
2017-11-17T16:04:30.840Z,11.12
2017-11-17T16:06:58.525Z,10.79
2017-11-17T16:09:26.194Z,10.97
2017-11-17T16:11:54.019Z,11.08
2017-11-17T16:14:21.862Z,10.91
2017-11-17T16:16:49.611Z,10.93
2017-11-17T16:19:17.294Z,10.89
2017-11-17T16:21:45.116Z,10.97
2017-11-17T16:24:12.856Z,10.87
2017-11-17T16:26:40.727Z,10.94
2017-11-17T16:29:08.296Z,10.97
2017-11-17T16:31:35.920Z,11.45
2017-11-17T16:34:03.607Z,11.38
2017-11-17T16:36:31.179Z,11.44
2017-11-17T16:38:58.821Z,11.36
2017-11-17T16:41:26.508Z,11.16
2017-11-17T16:43:54.097Z,11.40
2017-11-17T16:46:22.370Z,11.25
2017-11-17T16:48:50.007Z,11.33
2017-11-17T16:51:17.762Z,11.34
2017-11-17T16:53:45.439Z,11.27
2017-11-17T16:56:13.545Z,11.19
2017-11-17T16:58:41.384Z,11.25
2017-11-17T17:01:09.032Z,11.21
2017-11-17T17:03:36.636Z,11.34
2017-11-17T17:06:04.468Z,11.08
2017-11-17T17:08:32.168Z,11.16
2017-11-17T17:10:59.943Z,11.14
2017-11-17T17:13:27.571Z,10.93
2017-11-17T17:15:56.054Z,10.88
2017-11-17T17:18:23.848Z,11.12
2017-11-17T17:20:51.518Z,11.15
2017-11-17T17:23:19.244Z,11.06
2017-11-17T17:25:46.852Z,11.20
2017-11-17T17:28:14.671Z,11.12
2017-11-17T17:30:43.236Z,11.03
2017-11-17T17:33:10.890Z,11.00
2017-11-17T17:35:38.444Z,10.96
2017-11-17T17:38:06.072Z,10.98
2017-11-17T17:40:33.870Z,11.01
2017-11-17T17:43:01.655Z,10.89
2017-11-17T17:45:29.348Z,10.72
2017-11-17T17:47:57.308Z,10.64
2017-11-17T17:50:25.029Z,10.51
2017-11-17T17:52:52.727Z,10.59
2017-11-17T17:55:21.262Z,10.57
2017-11-17T17:57:50.963Z,10.53
2017-11-17T18:00:18.651Z,10.52
2017-11-17T18:02:46.499Z,10.42
2017-11-17T18:05:15.449Z,10.50
2017-11-17T18:07:43.061Z,10.49
2017-11-17T18:10:10.740Z,10.32
2017-11-17T18:12:38.527Z,10.18
2017-11-17T18:15:06.123Z,10.22
2017-11-17T18:17:33.824Z,9.78
2017-11-17T18:20:01.391Z,9.72
2017-11-17T18:22:29.039Z,10.07
2017-11-17T18:24:56.586Z,9.83
2017-11-17T18:27:24.195Z,9.48
2017-11-17T18:29:51.947Z,9.38
2017-11-17T18:32:19.525Z,9.49
2017-11-17T18:34:47.161Z,9.52
2017-11-17T18:37:14.730Z,9.54
2017-11-17T18:39:42.352Z,9.26
2017-11-17T18:42:09.929Z,9.56
2017-11-17T18:44:37.754Z,9.44
2017-11-17T18:47:06.082Z,9.70
2017-11-17T18:49:34.547Z,9.57
2017-11-17T18:52:09.315Z,9.20
2017-11-17T18:54:36.914Z,9.11
2017-11-17T18:57:05.068Z,9.05
2017-11-17T18:59:34.276Z,8.99
2017-11-17T19:02:07.707Z,9.36
2017-11-17T19:04:35.402Z,9.12
2017-11-17T19:07:03.395Z,9.21
2017-11-17T19:09:30.976Z,9.37
2017-11-17T19:11:58.556Z,9.08
2017-11-17T19:14:26.454Z,8.88
2017-11-17T19:16:54.087Z,9.10
2017-11-17T19:19:21.648Z,9.15
2017-11-17T19:21:49.297Z,9.05
2017-11-17T19:24:16.872Z,9.28
2017-11-17T19:26:44.581Z,9.18
2017-11-17T19:29:12.267Z,9.17
2017-11-17T19:31:39.930Z,9.32
2017-11-17T19:34:07.553Z,9.40
2017-11-17T19:36:35.222Z,9.48
2017-11-17T19:39:02.887Z,9.41
2017-11-17T19:41:30.407Z,9.27
2017-11-17T19:43:59.136Z,9.02
2017-11-17T19:46:28.150Z,9.00
2017-11-17T19:48:55.745Z,8.80
2017-11-17T19:51:23.369Z,9.18
2017-11-17T19:53:51.027Z,9.23
2017-11-17T19:56:20.466Z,8.91
2017-11-17T19:58:48.209Z,9.11
2017-11-17T20:01:15.805Z,9.11
2017-11-17T20:03:43.354Z,9.01
2017-11-17T20:06:11.907Z,9.05
2017-11-17T20:08:39.540Z,8.90
2017-11-17T20:11:07.142Z,9.20
2017-11-17T20:13:34.993Z,9.03
2017-11-17T20:16:03.388Z,8.98
2017-11-17T20:18:30.991Z,9.24
2017-11-17T20:20:58.519Z,9.25
2017-11-17T20:23:27.005Z,9.34
2017-11-17T20:25:54.767Z,9.30
2017-11-17T20:28:22.345Z,9.47
2017-11-17T20:30:50.252Z,9.35
2017-11-17T20:33:19.151Z,9.20
2017-11-17T20:35:50.870Z,9.23
2017-11-17T20:38:18.894Z,9.30
2017-11-17T20:40:47.673Z,9.15
2017-11-17T20:43:16.852Z,9.16
2017-11-17T20:45:44.552Z,9.06
2017-11-17T20:48:13.730Z,8.99
2017-11-17T20:53:59.966Z,9.13
2017-11-17T20:56:27.890Z,9.10
2017-11-17T20:58:55.693Z,9.02
2017-11-17T21:01:23.865Z,9.09
2017-11-17T21:04:03.598Z,9.18
2017-11-17T21:06:31.261Z,9.22
2017-11-17T21:08:58.835Z,9.32
2017-11-17T21:11:26.616Z,9.23
2017-11-17T21:13:54.349Z,9.16
2017-11-17T21:16:22.544Z,9.34
2017-11-17T21:18:50.340Z,9.26
2017-11-17T21:21:18.500Z,9.24
2017-11-17T21:23:46.301Z,9.17
2017-11-17T21:26:14.135Z,9.31
2017-11-17T21:28:41.809Z,9.38
2017-11-17T21:31:10.483Z,9.18
2017-11-17T21:33:38.074Z,9.23
2017-11-17T21:36:06.256Z,9.06
2017-11-17T21:38:34.375Z,9.19
2017-11-17T21:41:02.197Z,9.47
2017-11-17T21:43:30.862Z,9.52
2017-11-17T21:45:59.511Z,9.52
2017-11-17T21:48:30.065Z,9.16
2017-11-17T21:50:57.815Z,9.13
2017-11-17T21:53:36.918Z,9.44
2017-11-17T21:56:07.649Z,9.60
2017-11-17T21:58:35.297Z,9.70
2017-11-17T22:01:03.182Z,9.81
2017-11-17T22:03:30.841Z,9.86
2017-11-17T22:05:59.071Z,10.02
2017-11-17T22:08:26.648Z,9.88
2017-11-17T22:10:54.183Z,10.04
2017-11-17T22:13:21.823Z,10.10
2017-11-17T22:15:49.433Z,9.68
2017-11-17T22:18:16.948Z,9.88
2017-11-17T22:20:44.476Z,9.56
2017-11-17T22:23:12.092Z,9.86
2017-11-17T22:25:39.647Z,9.75
2017-11-17T22:28:07.194Z,9.73
2017-11-17T22:30:34.843Z,9.89
2017-11-17T22:33:02.472Z,9.78
2017-11-17T22:35:30.015Z,9.81
2017-11-17T22:37:57.585Z,9.70
2017-11-17T22:40:25.100Z,9.65
2017-11-17T22:42:52.682Z,9.71
2017-11-17T22:45:20.260Z,9.66
2017-11-17T22:47:48.068Z,9.78
2017-11-17T22:50:15.589Z,9.69
2017-11-17T22:52:43.168Z,9.86
2017-11-17T22:55:10.727Z,9.85
2017-11-17T22:57:38.344Z,9.92
2017-11-17T23:00:06.463Z,9.68
2017-11-17T23:02:34.008Z,9.74
2017-11-17T23:05:01.566Z,9.87
2017-11-17T23:07:29.193Z,9.79
2017-11-17T23:09:56.770Z,9.84
2017-11-17T23:12:24.584Z,10.02
2017-11-17T23:14:52.157Z,9.96
2017-11-17T23:17:19.676Z,10.01
2017-11-17T23:19:47.881Z,10.07
2017-11-17T23:22:15.567Z,10.14
2017-11-17T23:24:43.106Z,10.26
2017-11-17T23:27:11.524Z,10.28
2017-11-17T23:29:39.137Z,10.06
2017-11-17T23:32:06.838Z,10.07
2017-11-17T23:34:34.390Z,10.22
2017-11-17T23:37:01.964Z,10.14
2017-11-17T23:39:29.720Z,10.19
2017-11-17T23:41:57.363Z,10.09
2017-11-17T23:44:24.885Z,10.01
2017-11-17T23:46:54.209Z,9.79
2017-11-17T23:49:21.770Z,9.87
2017-11-17T23:51:49.384Z,9.57
2017-11-17T23:54:17.170Z,9.70
2017-11-17T23:56:44.918Z,9.73
2017-11-17T23:59:12.804Z,9.52
